Time;durP1;ratioP1;P1;durP2;ratioP2;P2;SDS_P1;SDS_P2;PMS_P1;PMS_P2;Temp;Humidity;BMP_temperature;BMP_pressure;BME280_temperature;BME280_humidity;BME280_pressure;Samples;Min_cycle;Max_cycle;Signal;HPM_P1;HPM_P2
2021/06/22 00:00:15;;;;;;;4.57;3.80;;;13.60;99.90;;;;;;5088334;28;20205;-81
2021/06/22 00:02:42;;;;;;;4.97;3.77;;;13.70;99.90;;;;;;5076673;28;20200;-81
2021/06/22 00:05:10;;;;;;;8.33;4.37;;;13.60;99.90;;;;;;5087958;28;20212;-80
2021/06/22 00:07:36;;;;;;;6.80;4.47;;;13.70;99.90;;;;;;5096600;28;20209;-80
2021/06/22 00:10:04;;;;;;;5.23;4.20;;;13.70;99.90;;;;;;5079879;28;20213;-80
2021/06/22 00:12:31;;;;;;;6.90;4.47;;;13.70;99.90;;;;;;5075444;28;20241;-82
2021/06/22 00:14:59;;;;;;;6.83;4.43;;;13.70;99.90;;;;;;5076407;28;20695;-82
2021/06/22 00:17:26;;;;;;;8.27;4.93;;;13.70;99.90;;;;;;5090612;28;20204;-81
2021/06/22 00:19:53;;;;;;;8.83;4.73;;;13.70;99.90;;;;;;5095762;28;20526;-81
2021/06/22 00:22:19;;;;;;;8.27;5.43;;;13.80;99.90;;;;;;5096606;28;20212;-81
2021/06/22 00:24:46;;;;;;;9.10;5.30;;;13.80;99.90;;;;;;5086009;28;20212;-81
2021/06/22 00:27:13;;;;;;;9.30;5.40;;;13.90;99.90;;;;;;5076319;28;20204;-81
2021/06/22 00:29:42;;;;;;;6.80;5.03;;;13.90;99.90;;;;;;5084860;28;20207;-81
2021/06/22 00:32:11;;;;;;;6.77;5.10;;;13.80;99.90;;;;;;5096097;28;20201;-81
2021/06/22 00:34:38;;;;;;;8.43;5.50;;;13.80;99.90;;;;;;5096426;28;20200;-81
2021/06/22 00:37:05;;;;;;;12.87;6.50;;;13.80;99.90;;;;;;5096272;28;20205;-80
2021/06/22 00:39:32;;;;;;;9.53;5.50;;;13.80;99.90;;;;;;5095674;28;20461;-80
2021/06/22 00:41:59;;;;;;;10.63;5.77;;;13.80;99.90;;;;;;5096446;28;20189;-80
2021/06/22 00:44:26;;;;;;;6.90;4.63;;;13.80;99.90;;;;;;5088626;28;20201;-80
2021/06/22 00:46:52;;;;;;;12.40;5.67;;;13.80;99.90;;;;;;5075287;28;20185;-80
2021/06/22 00:49:20;;;;;;;11.17;4.97;;;13.80;99.90;;;;;;5075813;28;20600;-80
2021/06/22 00:51:47;;;;;;;8.03;4.70;;;13.90;99.90;;;;;;5094042;28;20611;-81
2021/06/22 00:54:15;;;;;;;12.43;5.27;;;13.80;99.90;;;;;;5095776;28;20225;-80
2021/06/22 00:56:42;;;;;;;10.70;4.60;;;13.90;99.90;;;;;;5096024;28;20207;-80
2021/06/22 00:59:10;;;;;;;7.60;3.77;;;13.90;99.90;;;;;;5095216;28;20207;-82
2021/06/22 01:01:37;;;;;;;12.23;4.57;;;13.90;99.90;;;;;;5095143;28;20208;-81
2021/06/22 01:04:04;;;;;;;8.97;4.37;;;13.90;99.90;;;;;;5092273;28;20592;-82
2021/06/22 01:06:32;;;;;;;9.07;4.53;;;13.90;99.90;;;;;;5075749;28;20209;-81
2021/06/22 01:08:59;;;;;;;8.40;4.17;;;13.90;99.90;;;;;;5075143;28;20196;-81
2021/06/22 01:11:25;;;;;;;9.10;4.10;;;13.90;99.90;;;;;;5075564;28;20212;-81
2021/06/22 01:13:52;;;;;;;8.60;4.20;;;13.80;99.90;;;;;;5075493;28;20248;-81
2021/06/22 01:16:21;;;;;;;8.03;4.10;;;13.80;99.90;;;;;;5074631;28;20197;-81
2021/06/22 01:18:48;;;;;;;7.30;4.37;;;13.80;99.90;;;;;;5075607;28;20208;-80
2021/06/22 01:21:17;;;;;;;11.87;4.40;;;13.80;99.90;;;;;;5075282;28;20197;-79
2021/06/22 01:23:43;;;;;;;6.23;3.40;;;13.80;99.90;;;;;;5075316;28;20194;-80
2021/06/22 01:26:11;;;;;;;9.87;4.30;;;13.80;99.90;;;;;;5075589;28;20209;-80
2021/06/22 01:28:38;;;;;;;9.00;4.20;;;13.80;99.90;;;;;;5074731;28;20205;-81
2021/06/22 01:31:05;;;;;;;9.97;4.50;;;13.80;99.90;;;;;;5075353;28;20208;-82
2021/06/22 01:33:32;;;;;;;8.60;4.30;;;13.80;99.90;;;;;;5090280;28;20220;-81
2021/06/22 01:35:58;;;;;;;8.80;3.70;;;13.80;99.90;;;;;;5094631;28;20204;-81
2021/06/22 01:38:26;;;;;;;9.67;4.07;;;13.80;99.90;;;;;;5095630;28;20507;-81
2021/06/22 01:40:53;;;;;;;7.67;3.70;;;13.80;99.90;;;;;;5095850;28;20200;-81
2021/06/22 01:43:24;;;;;;;12.13;4.90;;;13.80;99.90;;;;;;5076610;28;20213;-80
2021/06/22 01:45:51;;;;;;;8.13;4.10;;;13.80;99.90;;;;;;5075258;28;20212;-80
2021/06/22 01:48:18;;;;;;;9.37;5.27;;;13.80;99.90;;;;;;5074851;28;20605;-82
2021/06/22 01:50:45;;;;;;;8.13;4.27;;;13.80;99.90;;;;;;5084778;28;20204;-83
2021/06/22 01:53:11;;;;;;;8.57;4.33;;;13.80;99.90;;;;;;5095127;28;20240;-82
2021/06/22 01:55:41;;;;;;;9.47;4.50;;;13.80;99.90;;;;;;5094577;28;20223;-79
2021/06/22 01:58:09;;;;;;;11.57;5.67;;;13.80;99.90;;;;;;5074503;28;20213;-78
2021/06/22 02:00:37;;;;;;;13.93;5.10;;;13.90;99.90;;;;;;5075221;28;20193;-80
2021/06/22 02:03:05;;;;;;;13.50;6.03;;;13.80;99.90;;;;;;5076665;28;20193;-80
2021/06/22 02:05:32;;;;;;;10.30;5.27;;;13.80;99.90;;;;;;5083005;28;20196;-82
2021/06/22 02:07:59;;;;;;;13.73;6.33;;;13.80;99.90;;;;;;5099347;28;20195;-83
2021/06/22 02:10:25;;;;;;;8.27;5.13;;;13.80;99.90;;;;;;5097872;28;20644;-82
2021/06/22 02:12:53;;;;;;;12.07;6.13;;;13.80;99.90;;;;;;5098713;28;20247;-81
2021/06/22 02:15:20;;;;;;;11.23;6.30;;;13.70;99.90;;;;;;5099008;28;20184;-83
2021/06/22 02:17:47;;;;;;;11.47;6.50;;;13.70;99.90;;;;;;5089034;28;20283;-81
2021/06/22 02:20:14;;;;;;;17.07;7.00;;;13.70;99.90;;;;;;5078925;28;20203;-81
2021/06/22 02:22:42;;;;;;;16.10;7.57;;;13.70;99.90;;;;;;5078795;28;20200;-81
2021/06/22 02:25:10;;;;;;;12.57;7.27;;;13.70;99.90;;;;;;5078011;28;20193;-81
2021/06/22 02:27:38;;;;;;;16.87;7.77;;;13.60;99.90;;;;;;5078610;28;20198;-83
2021/06/22 02:30:09;;;;;;;16.47;8.17;;;13.60;99.90;;;;;;5079662;28;20213;-83
2021/06/22 02:32:36;;;;;;;15.77;8.27;;;13.60;99.90;;;;;;5078219;28;20186;-84
2021/06/22 02:35:04;;;;;;;18.53;9.20;;;13.60;99.90;;;;;;5095949;28;20251;-82
2021/06/22 02:37:30;;;;;;;13.20;8.07;;;13.50;99.90;;;;;;5093973;28;20205;-83
2021/06/22 02:39:57;;;;;;;15.40;8.53;;;13.50;99.90;;;;;;5077802;28;20189;-82
2021/06/22 02:42:24;;;;;;;13.63;8.63;;;13.50;99.90;;;;;;5094138;28;20205;-81
2021/06/22 02:44:51;;;;;;;14.47;9.03;;;13.40;99.90;;;;;;5098805;28;20188;-81
2021/06/22 02:47:19;;;;;;;13.53;8.37;;;13.40;99.90;;;;;;5085732;28;20209;-82
2021/06/22 02:49:46;;;;;;;13.00;8.77;;;13.40;99.90;;;;;;5078259;28;20196;-82
2021/06/22 02:52:13;;;;;;;13.87;9.17;;;13.40;99.90;;;;;;5096409;28;20223;-82
2021/06/22 02:54:40;;;;;;;16.23;10.50;;;13.40;99.90;;;;;;5097756;28;20216;-81
2021/06/22 02:57:08;;;;;;;16.70;10.00;;;13.40;99.90;;;;;;5098310;28;20208;-82
2021/06/22 02:59:36;;;;;;;14.07;10.47;;;13.30;99.90;;;;;;5096977;28;20226;-81
2021/06/22 03:02:03;;;;;;;18.07;11.23;;;13.30;99.90;;;;;;5098252;28;20200;-81
2021/06/22 03:04:31;;;;;;;13.50;11.03;;;13.20;99.90;;;;;;5098480;28;20204;-81
2021/06/22 03:06:58;;;;;;;14.10;11.20;;;13.20;99.90;;;;;;5096766;28;20195;-81
2021/06/22 03:09:25;;;;;;;15.57;11.37;;;13.20;99.90;;;;;;5077765;28;20557;-80
2021/06/22 03:11:53;;;;;;;24.53;12.30;;;13.10;99.90;;;;;;5077570;28;20241;-81
2021/06/22 03:14:22;;;;;;;18.47;12.87;;;13.20;99.90;;;;;;5076835;28;20229;-81
2021/06/22 03:16:49;;;;;;;15.73;11.70;;;13.10;99.90;;;;;;5078000;28;20204;-83
2021/06/22 03:19:16;;;;;;;19.30;12.83;;;13.10;99.90;;;;;;5077392;28;20197;-81
2021/06/22 03:21:45;;;;;;;15.60;12.50;;;13.00;99.90;;;;;;5076929;28;20636;-82
2021/06/22 03:24:12;;;;;;;19.07;13.80;;;13.00;99.90;;;;;;5077884;28;20202;-81
2021/06/22 03:26:40;;;;;;;17.93;13.67;;;13.00;99.90;;;;;;5077400;28;20220;-80
2021/06/22 03:29:07;;;;;;;19.13;14.07;;;13.00;99.90;;;;;;5076955;28;20300;-82
2021/06/22 03:31:35;;;;;;;18.47;14.33;;;12.90;99.90;;;;;;5086534;28;20200;-80
2021/06/22 03:34:02;;;;;;;23.33;13.97;;;12.90;99.90;;;;;;5097745;28;20224;-81
2021/06/22 03:36:29;;;;;;;19.77;14.77;;;12.90;99.90;;;;;;5096773;28;20193;-81
2021/06/22 03:38:58;;;;;;;19.73;14.47;;;12.90;99.90;;;;;;5097357;28;20196;-81
2021/06/22 03:41:25;;;;;;;21.63;14.93;;;12.90;99.90;;;;;;5097147;28;20205;-80
2021/06/22 03:43:52;;;;;;;19.83;14.87;;;12.90;99.90;;;;;;5095008;28;20559;-82
2021/06/22 03:46:19;;;;;;;18.87;13.63;;;12.90;99.90;;;;;;5077337;28;20200;-81
2021/06/22 03:48:46;;;;;;;20.80;15.23;;;12.80;99.90;;;;;;5076474;28;20213;-79
2021/06/22 03:51:13;;;;;;;21.90;15.03;;;12.80;99.90;;;;;;5077212;28;20224;-79
2021/06/22 03:53:42;;;;;;;17.83;13.60;;;12.80;99.90;;;;;;5086126;28;20212;-80
2021/06/22 03:56:11;;;;;;;19.43;15.43;;;12.80;99.90;;;;;;5096280;28;20200;-81
2021/06/22 03:58:38;;;;;;;21.77;15.00;;;12.90;99.90;;;;;;5096614;28;20207;-80
2021/06/22 04:01:05;;;;;;;21.43;15.40;;;12.80;99.90;;;;;;5097355;28;20204;-81
2021/06/22 04:03:32;;;;;;;18.77;14.30;;;12.80;99.90;;;;;;5096843;28;20200;-82
2021/06/22 04:05:59;;;;;;;24.50;15.27;;;12.80;99.90;;;;;;5096902;28;20193;-82
2021/06/22 04:08:26;;;;;;;17.57;15.03;;;12.80;99.90;;;;;;5096717;28;20582;-81
2021/06/22 04:10:53;;;;;;;17.73;13.00;;;12.80;99.90;;;;;;5092801;28;20213;-81
2021/06/22 04:13:21;;;;;;;20.20;15.07;;;12.90;99.90;;;;;;5076496;28;20233;-80
2021/06/22 04:15:48;;;;;;;18.80;13.93;;;12.90;99.90;;;;;;5076417;28;20209;-80
2021/06/22 04:18:15;;;;;;;17.93;13.43;;;12.90;99.90;;;;;;5076382;28;20283;-81
2021/06/22 04:20:41;;;;;;;20.67;13.17;;;12.90;99.90;;;;;;5076594;28;20763;-81
2021/06/22 04:23:08;;;;;;;14.67;12.23;;;13.00;99.90;;;;;;5090287;28;20209;-81
2021/06/22 04:25:36;;;;;;;17.43;12.23;;;13.10;99.90;;;;;;5095648;28;20200;-80
2021/06/22 04:28:04;;;;;;;22.60;12.73;;;13.10;99.90;;;;;;5090391;28;20289;-81
2021/06/22 04:30:33;;;;;;;19.27;12.90;;;13.20;99.90;;;;;;5076461;28;20201;-81
2021/06/22 04:33:00;;;;;;;12.90;11.37;;;13.20;99.90;;;;;;5076483;28;20201;-81
2021/06/22 04:35:29;;;;;;;16.73;11.87;;;13.20;99.90;;;;;;5076426;28;20239;-81
2021/06/22 04:37:57;;;;;;;15.07;11.33;;;13.10;99.90;;;;;;5075357;28;20613;-81
2021/06/22 04:40:24;;;;;;;16.07;11.20;;;13.20;99.90;;;;;;5076380;28;20197;-83
2021/06/22 04:42:51;;;;;;;18.43;12.53;;;13.20;99.90;;;;;;5086014;28;20599;-82
2021/06/22 04:45:18;;;;;;;14.73;10.93;;;13.10;99.90;;;;;;5095995;28;20623;-82
2021/06/22 04:47:46;;;;;;;17.10;10.83;;;13.10;99.90;;;;;;5096312;28;20200;-82
2021/06/22 04:50:13;;;;;;;15.77;10.90;;;13.20;99.90;;;;;;5082610;28;20208;-83
2021/06/22 04:52:40;;;;;;;15.03;10.47;;;13.20;99.90;;;;;;5075369;28;20189;-82
2021/06/22 04:55:12;;;;;;;13.33;10.23;;;13.30;99.90;;;;;;5086231;28;20608;-82
2021/06/22 04:57:39;;;;;;;12.77;10.37;;;13.40;99.90;;;;;;5096341;28;20192;-82
2021/06/22 05:00:07;;;;;;;16.03;10.73;;;13.60;99.90;;;;;;5095435;28;20207;-80
2021/06/22 05:02:34;;;;;;;13.47;9.43;;;13.90;99.90;;;;;;5096080;28;20611;-80
2021/06/22 05:05:03;;;;;;;11.27;9.20;;;14.10;99.90;;;;;;5095301;28;20600;-82
2021/06/22 05:07:31;;;;;;;11.80;9.63;;;14.40;99.90;;;;;;5095037;28;20196;-83
2021/06/22 05:09:59;;;;;;;14.80;10.07;;;14.60;99.90;;;;;;5086065;22;20229;-79
2021/06/22 05:12:25;;;;;;;14.17;9.30;;;14.90;99.90;;;;;;5025388;28;20222;-79
2021/06/22 05:14:52;;;;;;;14.87;8.43;;;15.10;99.90;;;;;;5015437;28;20219;-81
2021/06/22 05:17:19;;;;;;;16.47;8.83;;;15.40;99.90;;;;;;5015983;28;20202;-80
2021/06/22 05:19:46;;;;;;;11.07;8.43;;;15.50;99.90;;;;;;5015579;28;20199;-80
2021/06/22 05:22:15;;;;;;;10.07;8.10;;;15.60;99.90;;;;;;5015687;28;20205;-79
2021/06/22 05:24:42;;;;;;;12.93;8.67;;;15.70;99.90;;;;;;5015924;28;20196;-80
2021/06/22 05:27:10;;;;;;;14.67;9.50;;;15.90;99.90;;;;;;5015515;28;20219;-81
2021/06/22 05:29:36;;;;;;;16.27;8.60;;;16.20;99.90;;;;;;5015473;28;20207;-81
2021/06/22 05:32:04;;;;;;;14.57;9.00;;;16.00;99.90;;;;;;5016360;28;20195;-81
2021/06/22 05:34:32;;;;;;;11.30;7.70;;;15.80;99.90;;;;;;5034332;28;20218;-79
2021/06/22 05:36:58;;;;;;;9.30;7.30;;;15.60;99.90;;;;;;5034365;28;20211;-81
2021/06/22 05:39:27;;;;;;;11.73;7.90;;;15.40;99.90;;;;;;5034516;28;20620;-80
2021/06/22 05:41:53;;;;;;;11.80;7.77;;;15.30;99.90;;;;;;5034786;28;20202;-78
2021/06/22 05:44:20;;;;;;;15.83;8.90;;;15.10;99.90;;;;;;5035134;28;20194;-79
2021/06/22 05:46:47;;;;;;;15.73;8.30;;;15.00;99.90;;;;;;5034473;28;20626;-79
2021/06/22 05:49:14;;;;;;;12.20;7.83;;;15.00;99.90;;;;;;5034306;28;20504;-79
2021/06/22 05:51:41;;;;;;;14.20;8.33;;;14.90;99.90;;;;;;5027907;28;20309;-79
2021/06/22 05:54:08;;;;;;;14.03;8.50;;;14.90;99.90;;;;;;5015081;28;20199;-79
2021/06/22 05:56:36;;;;;;;10.63;8.00;;;14.90;99.90;;;;;;5015005;28;20206;-81
2021/06/22 05:59:03;;;;;;;14.97;8.37;;;14.90;99.90;;;;;;5025250;28;20218;-82
2021/06/22 06:01:30;;;;;;;12.97;8.57;;;14.80;99.90;;;;;;5035083;28;20630;-83
2021/06/22 06:03:57;;;;;;;13.50;8.77;;;14.90;99.90;;;;;;5033808;28;20195;-80
2021/06/22 06:06:24;;;;;;;14.13;8.80;;;14.90;99.90;;;;;;5034869;28;20206;-79
2021/06/22 06:08:51;;;;;;;11.70;8.10;;;15.00;99.90;;;;;;5034706;28;20497;-78
2021/06/22 06:11:17;;;;;;;13.03;8.93;;;15.00;99.90;;;;;;5033978;28;20627;-81
2021/06/22 06:13:45;;;;;;;12.30;8.63;;;15.10;99.90;;;;;;5034831;28;20214;-79
2021/06/22 06:16:13;;;;;;;15.00;8.90;;;15.10;99.90;;;;;;5034764;28;20210;-82
2021/06/22 06:18:40;;;;;;;10.63;8.07;;;15.30;99.90;;;;;;5034136;28;20201;-82
2021/06/22 06:21:07;;;;;;;14.37;8.43;;;15.50;99.90;;;;;;5034582;28;20529;-81
2021/06/22 06:23:40;;;;;;;11.57;8.17;;;15.70;99.90;;;;;;5034228;28;20609;-80
2021/06/22 06:26:08;;;;;;;12.63;8.15;;;15.90;99.90;;;;;;5034612;28;20664;-79
2021/06/22 06:28:40;;;;;;;13.50;7.90;;;16.10;99.90;;;;;;5034796;28;20222;-79
2021/06/22 06:31:08;;;;;;;13.18;7.50;;;16.20;99.90;;;;;;5014720;28;20207;-79
2021/06/22 06:33:34;;;;;;;12.00;7.80;;;16.20;99.90;;;;;;5014760;28;20211;-79
2021/06/22 06:36:01;;;;;;;11.48;7.47;;;16.30;99.90;;;;;;5031777;28;20649;-78
2021/06/22 06:38:28;;;;;;;12.27;7.85;;;16.60;99.90;;;;;;5033770;28;20207;-77
2021/06/22 06:40:55;;;;;;;8.73;7.00;;;16.90;99.90;;;;;;5033968;28;20467;-80
2021/06/22 06:43:21;;;;;;;12.38;7.20;;;17.10;99.90;;;;;;5034493;28;20198;-81
2021/06/22 06:45:48;;;;;;;8.00;6.57;;;17.30;99.90;;;;;;5033935;28;20501;-80
2021/06/22 06:48:16;;;;;;;11.95;7.28;;;17.50;99.90;;;;;;5034478;28;20203;-79
2021/06/22 06:50:43;;;;;;;8.10;6.78;;;17.50;99.90;;;;;;5037894;28;20272;-78
2021/06/22 06:53:10;;;;;;;12.63;6.57;;;17.60;99.90;;;;;;5037703;28;20203;-79
2021/06/22 06:55:42;;;;;;;12.50;7.45;;;17.50;99.90;;;;;;5037826;28;20514;-79
2021/06/22 06:58:09;;;;;;;9.88;6.75;;;17.60;99.90;;;;;;5029250;28;20208;-79
2021/06/22 07:00:38;;;;;;;10.25;7.63;;;17.80;99.90;;;;;;5017515;28;20195;-82
2021/06/22 07:03:06;;;;;;;9.27;7.13;;;18.00;99.90;;;;;;5018116;28;20203;-81
2021/06/22 07:05:36;;;;;;;14.52;6.97;;;18.20;99.90;;;;;;5018040;28;20199;-81
2021/06/22 07:08:03;;;;;;;12.70;6.47;;;18.60;99.90;;;;;;5018166;28;20199;-82
2021/06/22 07:10:32;;;;;;;9.70;6.43;;;18.70;99.90;;;;;;5018096;28;20682;-81
2021/06/22 07:13:00;;;;;;;14.50;6.78;;;19.10;99.90;;;;;;5017326;28;20608;-79
2021/06/22 07:15:27;;;;;;;10.55;6.30;;;19.30;99.90;;;;;;5017804;28;20219;-80
2021/06/22 07:17:54;;;;;;;10.23;6.60;;;19.70;99.90;;;;;;5018155;28;20199;-80
2021/06/22 07:20:21;;;;;;;10.18;6.47;;;19.80;99.90;;;;;;5017089;28;20195;-82
2021/06/22 07:22:49;;;;;;;12.70;6.68;;;19.90;99.90;;;;;;5017683;28;20203;-81
2021/06/22 07:25:18;;;;;;;10.73;6.10;;;20.00;99.90;;;;;;5018084;28;20203;-80
2021/06/22 07:27:45;;;;;;;9.75;5.43;;;20.00;99.90;;;;;;5017204;28;20254;-79
2021/06/22 07:30:13;;;;;;;9.57;5.93;;;19.80;99.90;;;;;;5021918;28;20222;-82
2021/06/22 07:32:40;;;;;;;9.00;5.40;;;19.80;99.90;;;;;;5037172;28;20595;-80
2021/06/22 07:35:07;;;;;;;7.28;5.68;;;19.90;99.90;;;;;;5036594;28;20215;-81
2021/06/22 07:37:34;;;;;;;10.55;6.03;;;20.00;99.90;;;;;;5037185;28;20202;-80
2021/06/22 07:40:03;;;;;;;7.32;5.07;;;19.90;99.90;;;;;;5022650;28;20203;-80
2021/06/22 07:42:30;;;;;;;7.45;5.22;;;19.80;99.90;;;;;;5016902;28;20207;-83
2021/06/22 07:44:56;;;;;;;7.68;5.43;;;19.90;99.90;;;;;;5017343;28;20249;-80
2021/06/22 07:47:23;;;;;;;8.07;5.28;;;20.30;99.90;;;;;;5037075;28;20219;-81
2021/06/22 07:49:53;;;;;;;6.72;4.63;;;20.50;99.90;;;;;;5036201;28;20198;-80
2021/06/22 07:52:20;;;;;;;6.53;4.63;;;20.40;99.90;;;;;;5037181;28;20194;-83
2021/06/22 07:54:47;;;;;;;8.23;4.63;;;20.20;99.90;;;;;;5036714;28;20206;-80
2021/06/22 07:57:16;;;;;;;6.13;4.68;;;19.70;99.90;;;;;;5036750;28;20199;-83
2021/06/22 07:59:43;;;;;;;7.38;5.25;;;19.80;99.90;;;;;;5036220;28;20264;-82
2021/06/22 08:02:10;;;;;;;9.63;4.93;;;19.90;99.90;;;;;;5035714;28;20580;-81
2021/06/22 08:04:37;;;;;;;7.50;4.60;;;19.90;99.90;;;;;;5036036;28;20206;-79
2021/06/22 08:07:04;;;;;;;7.53;4.72;;;19.90;99.90;;;;;;5036645;28;20195;-79
2021/06/22 08:09:31;;;;;;;9.30;4.50;;;20.00;99.90;;;;;;5022104;28;20239;-80
2021/06/22 08:11:57;;;;;;;10.55;4.60;;;20.30;99.90;;;;;;5016818;28;20242;-81
2021/06/22 08:14:25;;;;;;;5.90;4.00;;;20.70;99.90;;;;;;5016733;28;20267;-80
2021/06/22 08:16:52;;;;;;;6.32;4.07;;;21.10;99.90;;;;;;5031428;28;20234;-82
2021/06/22 08:19:19;;;;;;;7.93;3.92;;;21.30;99.90;;;;;;5036399;28;20531;-82
2021/06/22 08:21:46;;;;;;;9.60;4.38;;;21.30;99.90;;;;;;5036676;28;20203;-81
2021/06/22 08:24:12;;;;;;;8.77;4.32;;;21.30;99.90;;;;;;5024656;28;20525;-79
2021/06/22 08:26:39;;;;;;;9.38;4.22;;;21.20;99.90;;;;;;5016733;28;20196;-81
2021/06/22 08:29:06;;;;;;;6.53;4.28;;;21.20;99.90;;;;;;5017293;28;20621;-78
2021/06/22 08:31:34;;;;;;;8.02;4.53;;;21.10;99.90;;;;;;5016161;28;20188;-80
2021/06/22 08:34:01;;;;;;;8.80;4.40;;;21.00;99.90;;;;;;5016755;28;20521;-81
2021/06/22 08:36:28;;;;;;;8.73;3.75;;;21.00;99.90;;;;;;5025917;28;20229;-81
2021/06/22 08:38:55;;;;;;;7.53;4.40;;;21.40;99.90;;;;;;5035388;28;20619;-83
2021/06/22 08:41:22;;;;;;;6.88;4.53;;;21.70;99.90;;;;;;5034619;28;20245;-81
2021/06/22 08:43:51;;;;;;;11.05;5.00;;;21.50;99.90;;;;;;5016169;28;20196;-78
2021/06/22 08:46:18;;;;;;;9.40;4.75;;;21.00;99.90;;;;;;5016033;28;20245;-79
2021/06/22 08:48:47;;;;;;;7.20;4.47;;;20.70;99.90;;;;;;5016063;28;20210;-83
2021/06/22 08:51:15;;;;;;;9.40;5.38;;;20.50;99.90;;;;;;5016089;28;20206;-80
2021/06/22 08:53:42;;;;;;;9.68;4.68;;;20.50;99.90;;;;;;5016350;28;20207;-82
2021/06/22 08:56:09;;;;;;;7.93;4.35;;;20.60;99.90;;;;;;5016067;28;20635;-85
2021/06/22 08:58:36;;;;;;;9.70;4.93;;;20.90;99.90;;;;;;5007872;28;20203;-81
2021/06/22 09:01:02;;;;;;;9.05;4.57;;;21.20;99.90;;;;;;5016759;28;20203;-83
2021/06/22 09:03:29;;;;;;;6.28;4.25;;;21.20;99.90;;;;;;5015878;28;20621;-85
2021/06/22 09:05:59;;;;;;;9.57;4.38;;;21.10;99.90;;;;;;5015617;28;20195;-82
2021/06/22 09:08:28;;;;;;;7.68;4.70;;;21.20;99.90;;;;;;5020152;28;20397;-79
2021/06/22 09:11:04;;;;;;;7.32;5.07;;;21.10;99.90;;;;;;5035599;28;20639;-83
2021/06/22 09:13:31;;;;;;;9.45;5.10;;;20.90;99.90;;;;;;5035045;28;20194;-83
2021/06/22 09:15:58;;;;;;;7.05;5.50;;;20.60;99.90;;;;;;5034851;28;20238;-81
2021/06/22 09:18:30;;;;;;;7.95;4.30;;;20.50;99.90;;;;;;5035729;28;20198;-82
2021/06/22 09:21:00;;;;;;;6.40;4.78;;;20.50;99.90;;;;;;5034797;28;20194;-80
2021/06/22 09:23:32;;;;;;;9.45;5.35;;;20.60;99.90;;;;;;5035793;28;20209;-81
2021/06/22 09:26:00;;;;;;;11.02;4.68;;;20.40;99.90;;;;;;5035652;28;20194;-82
2021/06/22 09:28:29;;;;;;;6.00;4.45;;;20.10;99.90;;;;;;5034876;28;20595;-83
2021/06/22 09:30:59;;;;;;;6.72;4.85;;;19.70;99.90;;;;;;5022431;28;20207;-79
2021/06/22 09:33:33;;;;;;;10.35;6.20;;;19.70;99.90;;;;;;5014846;28;20221;-79
2021/06/22 09:36:07;;;;;;;8.63;5.07;;;20.00;99.90;;;;;;5015091;28;20223;-78
2021/06/22 09:38:36;;;;;;;10.45;5.22;;;20.40;99.90;;;;;;5015325;28;20194;-79
2021/06/22 09:41:21;;;;;;;6.47;4.75;;;20.70;99.90;;;;;;5014835;28;20257;-79
2021/06/22 09:43:50;;;;;;;7.03;4.90;;;20.90;99.90;;;;;;5015346;28;20206;-79
2021/06/22 09:46:30;;;;;;;7.45;4.07;;;21.40;99.90;;;;;;5015110;28;20190;-80
2021/06/22 09:48:58;;;;;;;8.30;4.88;;;22.00;99.90;;;;;;5025319;28;20206;-79
2021/06/22 09:51:31;;;;;;;10.02;5.20;;;22.30;99.90;;;;;;5034767;28;20194;-79
2021/06/22 09:54:09;;;;;;;6.03;4.18;;;22.40;99.90;;;;;;5024879;28;20203;-81
2021/06/22 09:56:36;;;;;;;9.32;4.07;;;22.40;99.90;;;;;;5014292;28;20635;-79
2021/06/22 09:59:07;;;;;;;7.30;4.30;;;22.40;99.90;;;;;;5015022;28;20604;-83
2021/06/22 10:01:36;;;;;;;10.30;4.68;;;22.70;99.90;;;;;;5024397;28;20206;-83
2021/06/22 10:04:15;;;;;;;8.38;4.57;;;22.90;99.90;;;;;;5034914;28;20516;-79
2021/06/22 10:06:47;;;;;;;7.10;4.60;;;22.90;99.90;;;;;;5034804;28;20206;-81
2021/06/22 10:09:20;;;;;;;9.13;5.45;;;22.80;99.90;;;;;;5029333;28;20204;-80
2021/06/22 10:11:47;;;;;;;6.38;5.07;;;22.20;99.90;;;;;;5014796;28;20540;-80
2021/06/22 10:14:26;;;;;;;10.32;4.72;;;21.80;99.90;;;;;;5015197;28;20210;-79
2021/06/22 10:16:53;;;;;;;7.07;5.00;;;21.70;99.90;;;;;;5024239;28;20230;-79
2021/06/22 10:19:22;;;;;;;8.90;5.75;;;21.40;99.90;;;;;;5034659;28;20510;-83
2021/06/22 10:21:52;;;;;;;9.10;5.32;;;20.90;99.90;;;;;;5034605;28;20233;-80
2021/06/22 10:24:19;;;;;;;8.07;5.85;;;20.60;99.90;;;;;;5036008;28;20195;-79
2021/06/22 10:26:47;;;;;;;10.52;5.55;;;20.50;99.90;;;;;;5038276;28;20206;-80
2021/06/22 10:29:17;;;;;;;10.25;6.32;;;20.10;99.90;;;;;;5038652;28;20252;-83
2021/06/22 10:31:44;;;;;;;10.93;5.95;;;20.00;99.90;;;;;;5033358;28;20200;-80
2021/06/22 10:34:11;;;;;;;13.30;7.72;;;20.10;99.90;;;;;;5018949;28;20210;-80
2021/06/22 10:36:46;;;;;;;7.80;5.40;;;20.10;99.90;;;;;;5018877;28;20230;-82
2021/06/22 10:39:19;;;;;;;8.98;6.20;;;20.10;99.90;;;;;;5018958;28;20500;-83
2021/06/22 10:41:46;;;;;;;9.43;6.00;;;19.90;99.90;;;;;;5029727;28;20203;-83
2021/06/22 10:44:40;;;;;;;8.88;6.10;;;19.70;99.90;;;;;;5037962;28;20203;-82
2021/06/22 10:47:34;;;;;;;8.30;6.38;;;19.60;99.90;;;;;;5038473;28;20190;-82
2021/06/22 10:50:17;;;;;;;7.70;5.78;;;19.70;99.90;;;;;;5038299;28;20217;-82
2021/06/22 10:52:58;;;;;;;9.05;6.22;;;19.80;99.90;;;;;;5018139;28;20515;-81
2021/06/22 10:56:03;;;;;;;9.27;6.40;;;19.80;99.90;;;;;;5018852;28;20187;-81
2021/06/22 10:58:31;;;;;;;8.27;6.35;;;19.50;99.90;;;;;;5018254;28;20503;-83
2021/06/22 11:01:17;;;;;;;8.75;6.65;;;19.80;99.90;;;;;;5018642;28;20210;-80
2021/06/22 11:03:44;;;;;;;9.63;6.80;;;19.90;99.90;;;;;;5018161;28;20199;-84
2021/06/22 11:06:28;;;;;;;8.35;6.97;;;19.70;99.90;;;;;;5018023;28;20196;-79
2021/06/22 11:09:14;;;;;;;9.95;6.50;;;19.50;99.90;;;;;;5018970;28;20476;-82
2021/06/22 11:11:41;;;;;;;15.40;7.38;;;19.20;99.90;;;;;;5018685;28;20245;-83
2021/06/22 11:14:10;;;;;;;11.65;7.95;;;18.90;99.90;;;;;;5037518;28;20199;-81
2021/06/22 11:16:37;;;;;;;9.90;6.10;;;18.90;99.90;;;;;;5037651;28;20222;-84
2021/06/22 11:19:14;;;;;;;11.18;6.68;;;18.90;99.90;;;;;;5037032;28;20218;-83
2021/06/22 11:22:02;;;;;;;12.23;6.93;;;18.90;99.90;;;;;;5037872;28;20195;-81
2021/06/22 11:24:31;;;;;;;8.32;6.63;;;19.00;99.90;;;;;;5013502;28;20254;-84
2021/06/22 11:27:03;;;;;;;7.38;6.35;;;19.10;99.90;;;;;;5017456;28;20537;-82
2021/06/22 11:29:51;;;;;;;10.20;6.20;;;19.30;99.90;;;;;;5018324;28;20200;-78
2021/06/22 11:32:37;;;;;;;7.97;6.22;;;19.40;99.90;;;;;;5017966;28;20199;-83
2021/06/22 11:35:09;;;;;;;10.95;6.82;;;19.40;99.90;;;;;;5016012;28;20257;-82
2021/06/22 11:37:36;;;;;;;7.22;6.47;;;19.60;99.90;;;;;;5018096;28;20266;-79
2021/06/22 11:40:12;;;;;;;8.88;5.68;;;19.80;99.90;;;;;;5017385;28;20206;-79
2021/06/22 11:42:40;;;;;;;9.80;6.03;;;20.10;99.90;;;;;;5034483;28;20210;-79
2021/06/22 11:45:25;;;;;;;8.95;6.40;;;20.30;99.90;;;;;;5037382;28;20238;-78
2021/06/22 11:48:00;;;;;;;9.57;6.38;;;20.60;99.90;;;;;;5035902;28;20261;-82
2021/06/22 11:50:36;;;;;;;7.47;6.45;;;20.60;99.90;;;;;;5036968;28;20618;-85
2021/06/22 11:53:06;;;;;;;11.32;6.90;;;20.70;99.90;;;;;;5037345;28;20202;-82
2021/06/22 11:55:42;;;;;;;17.15;8.30;;;20.50;99.90;;;;;;5036350;28;20199;-78
2021/06/22 11:58:09;;;;;;;10.13;6.85;;;20.60;99.90;;;;;;5021605;28;20337;-79
2021/06/22 12:00:37;;;;;;;8.25;6.53;;;20.70;99.90;;;;;;5017308;28;20199;-79
2021/06/22 12:03:07;;;;;;;8.40;6.15;;;20.50;99.90;;;;;;5017067;28;20241;-79
2021/06/22 12:05:35;;;;;;;9.45;6.85;;;20.50;99.90;;;;;;5017836;28;20203;-78
2021/06/22 12:08:04;;;;;;;9.13;6.72;;;20.50;99.90;;;;;;5016790;28;20198;-79
2021/06/22 12:10:47;;;;;;;9.18;7.80;;;20.40;99.90;;;;;;5016813;28;20235;-81
2021/06/22 12:13:28;;;;;;;9.95;7.50;;;20.10;99.90;;;;;;5017029;28;20473;-80
2021/06/22 12:15:57;;;;;;;6.95;5.80;;;20.30;99.90;;;;;;5035866;28;20230;-80
2021/06/22 12:18:28;;;;;;;9.80;6.57;;;20.50;99.90;;;;;;5036776;28;20481;-81
2021/06/22 12:20:55;;;;;;;6.75;5.93;;;20.30;99.90;;;;;;5036679;28;20206;-83
2021/06/22 12:23:22;;;;;;;9.25;6.30;;;20.30;99.90;;;;;;5033167;28;20222;-84
2021/06/22 12:25:52;;;;;;;9.75;6.53;;;20.60;99.90;;;;;;5017091;28;20207;-80
2021/06/22 12:28:21;;;;;;;7.53;6.65;;;20.60;99.90;;;;;;5017137;28;20203;-79
2021/06/22 12:30:50;;;;;;;8.25;6.32;;;20.50;99.90;;;;;;5016469;28;20288;-79
2021/06/22 12:33:20;;;;;;;7.78;7.03;;;20.80;99.90;;;;;;5016473;28;20214;-77
2021/06/22 12:35:49;;;;;;;10.30;7.30;;;21.00;99.90;;;;;;5016615;28;20200;-84
2021/06/22 12:38:18;;;;;;;7.18;6.20;;;21.20;99.90;;;;;;5016425;28;20311;-83
2021/06/22 12:40:47;;;;;;;8.10;7.00;;;21.20;99.90;;;;;;5016673;28;20210;-81
2021/06/22 12:43:15;;;;;;;9.25;6.25;;;21.10;99.90;;;;;;5016094;28;20211;-84
2021/06/22 12:45:43;;;;;;;9.23;6.15;;;20.90;99.90;;;;;;5016371;28;20607;-86
2021/06/22 12:48:10;;;;;;;8.63;6.60;;;20.70;99.90;;;;;;5016342;28;20195;-83